sensor_id;sensor_type;location;lat;lon;timestamp;temperature;humidity
43894;DHT22;29556;50.846;4.442;2022-12-07T00:01:16;8.00;88.30
43894;DHT22;29556;50.846;4.442;2022-12-07T00:03:44;7.90;88.70
43894;DHT22;29556;50.846;4.442;2022-12-07T00:06:12;7.90;88.80
43894;DHT22;29556;50.846;4.442;2022-12-07T00:08:38;7.90;88.60
43894;DHT22;29556;50.846;4.442;2022-12-07T00:16:43;7.80;88.60
43894;DHT22;29556;50.846;4.442;2022-12-07T00:19:11;7.70;88.60
43894;DHT22;29556;50.846;4.442;2022-12-07T00:21:37;7.70;88.80
43894;DHT22;29556;50.846;4.442;2022-12-07T00:24:04;7.60;88.80
43894;DHT22;29556;50.846;4.442;2022-12-07T00:26:33;7.70;88.90
43894;DHT22;29556;50.846;4.442;2022-12-07T00:29:00;7.60;88.70
43894;DHT22;29556;50.846;4.442;2022-12-07T00:31:29;7.60;88.90
43894;DHT22;29556;50.846;4.442;2022-12-07T00:33:55;7.50;89.20
43894;DHT22;29556;50.846;4.442;2022-12-07T00:36:24;7.50;90.00
43894;DHT22;29556;50.846;4.442;2022-12-07T00:38:49;7.50;89.30
43894;DHT22;29556;50.846;4.442;2022-12-07T00:41:21;7.50;89.20
43894;DHT22;29556;50.846;4.442;2022-12-07T00:43:48;7.70;89.90
43894;DHT22;29556;50.846;4.442;2022-12-07T00:46:14;7.60;88.90
43894;DHT22;29556;50.846;4.442;2022-12-07T00:48:40;7.70;89.00
43894;DHT22;29556;50.846;4.442;2022-12-07T00:51:07;7.50;88.80
43894;DHT22;29556;50.846;4.442;2022-12-07T00:53:37;7.50;88.90
43894;DHT22;29556;50.846;4.442;2022-12-07T00:56:12;7.50;89.00
43894;DHT22;29556;50.846;4.442;2022-12-07T00:58:38;7.50;88.70
43894;DHT22;29556;50.846;4.442;2022-12-07T01:01:05;7.60;88.60
43894;DHT22;29556;50.846;4.442;2022-12-07T01:03:31;7.40;88.40
43894;DHT22;29556;50.846;4.442;2022-12-07T01:05:57;7.30;88.80
43894;DHT22;29556;50.846;4.442;2022-12-07T01:08:24;7.30;88.80
43894;DHT22;29556;50.846;4.442;2022-12-07T01:11:00;7.50;88.80
43894;DHT22;29556;50.846;4.442;2022-12-07T01:13:26;7.50;88.70
43894;DHT22;29556;50.846;4.442;2022-12-07T01:15:56;7.30;88.80
43894;DHT22;29556;50.846;4.442;2022-12-07T01:18:23;7.30;89.00
43894;DHT22;29556;50.846;4.442;2022-12-07T01:21:01;7.30;89.30
43894;DHT22;29556;50.846;4.442;2022-12-07T01:23:27;7.30;89.20
43894;DHT22;29556;50.846;4.442;2022-12-07T01:26:01;7.30;89.30
43894;DHT22;29556;50.846;4.442;2022-12-07T01:28:28;7.30;89.30
43894;DHT22;29556;50.846;4.442;2022-12-07T01:31:02;7.30;89.40
43894;DHT22;29556;50.846;4.442;2022-12-07T01:33:30;7.30;89.40
43894;DHT22;29556;50.846;4.442;2022-12-07T01:38:39;7.30;89.10
43894;DHT22;29556;50.846;4.442;2022-12-07T01:41:06;7.30;89.10
43894;DHT22;29556;50.846;4.442;2022-12-07T01:43:33;7.30;89.10
43894;DHT22;29556;50.846;4.442;2022-12-07T01:46:00;7.30;89.20
43894;DHT22;29556;50.846;4.442;2022-12-07T01:48:37;7.40;89.10
43894;DHT22;29556;50.846;4.442;2022-12-07T01:51:08;7.40;89.00
43894;DHT22;29556;50.846;4.442;2022-12-07T01:53:37;7.40;88.90
43894;DHT22;29556;50.846;4.442;2022-12-07T01:56:05;7.30;88.80
43894;DHT22;29556;50.846;4.442;2022-12-07T01:58:32;7.40;88.90
43894;DHT22;29556;50.846;4.442;2022-12-07T02:00:58;7.40;89.00
43894;DHT22;29556;50.846;4.442;2022-12-07T02:03:29;7.40;89.20
43894;DHT22;29556;50.846;4.442;2022-12-07T02:05:57;7.50;89.20
43894;DHT22;29556;50.846;4.442;2022-12-07T02:08:24;7.40;89.20
43894;DHT22;29556;50.846;4.442;2022-12-07T02:10:50;7.40;89.30
43894;DHT22;29556;50.846;4.442;2022-12-07T02:13:25;7.40;89.40
43894;DHT22;29556;50.846;4.442;2022-12-07T02:24:52;7.50;89.70
43894;DHT22;29556;50.846;4.442;2022-12-07T02:30:14;7.70;89.60
43894;DHT22;29556;50.846;4.442;2022-12-07T02:35:39;7.80;89.40
43894;DHT22;29556;50.846;4.442;2022-12-07T02:41:05;7.80;88.90
43894;DHT22;29556;50.846;4.442;2022-12-07T02:43:45;7.80;89.10
43894;DHT22;29556;50.846;4.442;2022-12-07T02:46:18;7.90;89.20
43894;DHT22;29556;50.846;4.442;2022-12-07T02:48:45;7.90;89.10
43894;DHT22;29556;50.846;4.442;2022-12-07T02:51:12;7.90;88.80
43894;DHT22;29556;50.846;4.442;2022-12-07T02:53:42;7.80;88.70
43894;DHT22;29556;50.846;4.442;2022-12-07T02:56:39;7.90;88.90
43894;DHT22;29556;50.846;4.442;2022-12-07T03:07:33;7.80;88.00
43894;DHT22;29556;50.846;4.442;2022-12-07T03:13:10;7.70;88.10
43894;DHT22;29556;50.846;4.442;2022-12-07T03:15:49;7.60;88.00
43894;DHT22;29556;50.846;4.442;2022-12-07T03:18:22;7.70;88.00
43894;DHT22;29556;50.846;4.442;2022-12-07T03:20:52;7.50;88.00
43894;DHT22;29556;50.846;4.442;2022-12-07T03:23:19;7.40;87.90
43894;DHT22;29556;50.846;4.442;2022-12-07T03:25:49;7.40;88.00
43894;DHT22;29556;50.846;4.442;2022-12-07T03:28:18;7.50;88.10
43894;DHT22;29556;50.846;4.442;2022-12-07T03:33:18;7.50;88.30
43894;DHT22;29556;50.846;4.442;2022-12-07T03:36:08;7.30;88.30
43894;DHT22;29556;50.846;4.442;2022-12-07T03:38:49;7.30;88.50
43894;DHT22;29556;50.846;4.442;2022-12-07T03:41:25;7.40;88.60
43894;DHT22;29556;50.846;4.442;2022-12-07T03:43:53;7.30;89.30
43894;DHT22;29556;50.846;4.442;2022-12-07T03:46:34;7.30;88.30
43894;DHT22;29556;50.846;4.442;2022-12-07T03:49:11;7.30;88.50
43894;DHT22;29556;50.846;4.442;2022-12-07T03:51:56;7.30;88.40
43894;DHT22;29556;50.846;4.442;2022-12-07T03:54:34;7.20;88.40
43894;DHT22;29556;50.846;4.442;2022-12-07T03:57:02;7.20;88.40
43894;DHT22;29556;50.846;4.442;2022-12-07T03:59:30;7.20;88.30
43894;DHT22;29556;50.846;4.442;2022-12-07T04:02:02;7.10;88.30
43894;DHT22;29556;50.846;4.442;2022-12-07T04:04:29;7.10;88.30
43894;DHT22;29556;50.846;4.442;2022-12-07T04:06:55;7.10;88.20
43894;DHT22;29556;50.846;4.442;2022-12-07T04:09:20;7.10;88.30
43894;DHT22;29556;50.846;4.442;2022-12-07T04:11:46;7.00;88.20
43894;DHT22;29556;50.846;4.442;2022-12-07T04:14:12;7.00;88.20
43894;DHT22;29556;50.846;4.442;2022-12-07T04:16:47;6.90;88.20
43894;DHT22;29556;50.846;4.442;2022-12-07T04:19:13;6.90;88.20
43894;DHT22;29556;50.846;4.442;2022-12-07T04:21:39;7.00;88.30
43894;DHT22;29556;50.846;4.442;2022-12-07T04:24:05;6.80;88.20
43894;DHT22;29556;50.846;4.442;2022-12-07T04:26:31;6.80;88.30
43894;DHT22;29556;50.846;4.442;2022-12-07T04:28:56;6.80;88.20
43894;DHT22;29556;50.846;4.442;2022-12-07T04:31:22;7.00;88.50
43894;DHT22;29556;50.846;4.442;2022-12-07T04:33:48;6.90;88.40
43894;DHT22;29556;50.846;4.442;2022-12-07T04:36:13;6.80;88.40
43894;DHT22;29556;50.846;4.442;2022-12-07T04:38:39;6.80;88.50
43894;DHT22;29556;50.846;4.442;2022-12-07T04:41:08;6.80;88.70
43894;DHT22;29556;50.846;4.442;2022-12-07T04:43:35;6.80;89.00
43894;DHT22;29556;50.846;4.442;2022-12-07T04:46:00;6.80;89.00
43894;DHT22;29556;50.846;4.442;2022-12-07T04:48:27;6.90;89.30
43894;DHT22;29556;50.846;4.442;2022-12-07T04:50:52;6.90;89.30
43894;DHT22;29556;50.846;4.442;2022-12-07T04:53:18;7.00;89.40
43894;DHT22;29556;50.846;4.442;2022-12-07T04:55:45;6.80;89.20
43894;DHT22;29556;50.846;4.442;2022-12-07T04:58:12;6.80;89.30
43894;DHT22;29556;50.846;4.442;2022-12-07T05:00:38;6.80;89.40
43894;DHT22;29556;50.846;4.442;2022-12-07T05:03:04;6.80;89.60
43894;DHT22;29556;50.846;4.442;2022-12-07T05:05:29;6.90;89.70
43894;DHT22;29556;50.846;4.442;2022-12-07T05:07:55;6.90;89.50
43894;DHT22;29556;50.846;4.442;2022-12-07T05:10:22;7.00;89.50
43894;DHT22;29556;50.846;4.442;2022-12-07T05:12:48;7.00;89.30
43894;DHT22;29556;50.846;4.442;2022-12-07T05:15:14;7.00;89.20
43894;DHT22;29556;50.846;4.442;2022-12-07T05:17:40;7.10;89.30
43894;DHT22;29556;50.846;4.442;2022-12-07T05:20:07;7.00;89.20
43894;DHT22;29556;50.846;4.442;2022-12-07T05:22:33;7.10;89.30
43894;DHT22;29556;50.846;4.442;2022-12-07T05:24:59;7.00;89.10
43894;DHT22;29556;50.846;4.442;2022-12-07T05:27:24;7.00;89.20
43894;DHT22;29556;50.846;4.442;2022-12-07T05:29:50;7.00;89.20
43894;DHT22;29556;50.846;4.442;2022-12-07T05:32:17;7.10;89.20
43894;DHT22;29556;50.846;4.442;2022-12-07T05:34:42;7.10;89.30
43894;DHT22;29556;50.846;4.442;2022-12-07T05:37:08;7.10;89.40
43894;DHT22;29556;50.846;4.442;2022-12-07T05:39:34;7.20;89.50
43894;DHT22;29556;50.846;4.442;2022-12-07T05:41:59;7.10;89.50
43894;DHT22;29556;50.846;4.442;2022-12-07T05:44:41;7.20;89.60
43894;DHT22;29556;50.846;4.442;2022-12-07T05:47:11;7.10;89.40
43894;DHT22;29556;50.846;4.442;2022-12-07T05:49:44;7.20;89.70
43894;DHT22;29556;50.846;4.442;2022-12-07T05:52:11;7.20;90.10
43894;DHT22;29556;50.846;4.442;2022-12-07T05:54:37;7.20;89.50
43894;DHT22;29556;50.846;4.442;2022-12-07T05:57:02;7.30;89.60
43894;DHT22;29556;50.846;4.442;2022-12-07T05:59:28;7.20;89.50
43894;DHT22;29556;50.846;4.442;2022-12-07T06:01:59;7.30;89.60
43894;DHT22;29556;50.846;4.442;2022-12-07T06:04:27;7.20;89.40
43894;DHT22;29556;50.846;4.442;2022-12-07T06:06:53;7.30;89.30
43894;DHT22;29556;50.846;4.442;2022-12-07T06:09:21;7.20;89.20
43894;DHT22;29556;50.846;4.442;2022-12-07T06:11:47;7.10;89.20
43894;DHT22;29556;50.846;4.442;2022-12-07T06:14:32;7.20;89.50
43894;DHT22;29556;50.846;4.442;2022-12-07T06:16:58;7.10;89.50
43894;DHT22;29556;50.846;4.442;2022-12-07T06:19:24;7.10;89.80
43894;DHT22;29556;50.846;4.442;2022-12-07T06:21:50;7.20;90.00
43894;DHT22;29556;50.846;4.442;2022-12-07T06:24:16;7.20;89.90
43894;DHT22;29556;50.846;4.442;2022-12-07T06:26:43;7.20;89.90
43894;DHT22;29556;50.846;4.442;2022-12-07T06:29:09;7.40;89.80
43894;DHT22;29556;50.846;4.442;2022-12-07T06:31:35;7.20;89.90
43894;DHT22;29556;50.846;4.442;2022-12-07T06:34:06;7.10;89.90
43894;DHT22;29556;50.846;4.442;2022-12-07T06:36:32;7.10;89.80
43894;DHT22;29556;50.846;4.442;2022-12-07T06:38:58;7.20;89.70
43894;DHT22;29556;50.846;4.442;2022-12-07T06:41:25;7.20;89.80
43894;DHT22;29556;50.846;4.442;2022-12-07T06:43:50;7.20;89.70
43894;DHT22;29556;50.846;4.442;2022-12-07T06:46:16;7.20;89.60
43894;DHT22;29556;50.846;4.442;2022-12-07T06:48:44;7.30;89.60
43894;DHT22;29556;50.846;4.442;2022-12-07T06:51:10;7.30;89.60
43894;DHT22;29556;50.846;4.442;2022-12-07T06:53:36;7.30;89.60
43894;DHT22;29556;50.846;4.442;2022-12-07T06:56:03;7.40;89.70
43894;DHT22;29556;50.846;4.442;2022-12-07T06:58:29;7.40;89.70
43894;DHT22;29556;50.846;4.442;2022-12-07T07:00:54;7.40;89.70
43894;DHT22;29556;50.846;4.442;2022-12-07T07:03:20;7.40;89.60
43894;DHT22;29556;50.846;4.442;2022-12-07T07:05:46;7.50;89.70
43894;DHT22;29556;50.846;4.442;2022-12-07T07:08:12;7.60;89.90
43894;DHT22;29556;50.846;4.442;2022-12-07T07:10:38;7.50;89.80
43894;DHT22;29556;50.846;4.442;2022-12-07T07:13:04;7.60;90.00
43894;DHT22;29556;50.846;4.442;2022-12-07T07:15:30;7.60;89.90
43894;DHT22;29556;50.846;4.442;2022-12-07T07:17:56;7.60;89.90
43894;DHT22;29556;50.846;4.442;2022-12-07T07:20:22;7.60;89.70
43894;DHT22;29556;50.846;4.442;2022-12-07T07:22:48;7.60;89.70
43894;DHT22;29556;50.846;4.442;2022-12-07T07:25:14;7.60;89.70
43894;DHT22;29556;50.846;4.442;2022-12-07T07:27:40;7.50;89.50
43894;DHT22;29556;50.846;4.442;2022-12-07T07:30:06;7.50;89.60
43894;DHT22;29556;50.846;4.442;2022-12-07T07:32:32;7.50;90.00
43894;DHT22;29556;50.846;4.442;2022-12-07T07:34:58;7.50;89.30
43894;DHT22;29556;50.846;4.442;2022-12-07T07:37:25;7.40;89.40
43894;DHT22;29556;50.846;4.442;2022-12-07T07:39:50;7.40;89.40
43894;DHT22;29556;50.846;4.442;2022-12-07T07:42:16;7.40;89.40
43894;DHT22;29556;50.846;4.442;2022-12-07T07:44:41;7.40;89.40
43894;DHT22;29556;50.846;4.442;2022-12-07T07:47:07;7.30;89.30
43894;DHT22;29556;50.846;4.442;2022-12-07T07:49:33;7.30;89.30
43894;DHT22;29556;50.846;4.442;2022-12-07T07:51:58;7.20;89.20
43894;DHT22;29556;50.846;4.442;2022-12-07T07:54:24;7.30;89.40
43894;DHT22;29556;50.846;4.442;2022-12-07T07:56:50;7.40;89.50
43894;DHT22;29556;50.846;4.442;2022-12-07T07:59:15;7.20;89.40
43894;DHT22;29556;50.846;4.442;2022-12-07T08:01:41;7.20;89.30
43894;DHT22;29556;50.846;4.442;2022-12-07T08:04:07;7.20;89.10
43894;DHT22;29556;50.846;4.442;2022-12-07T08:06:33;7.10;89.30
43894;DHT22;29556;50.846;4.442;2022-12-07T08:08:58;7.10;89.40
43894;DHT22;29556;50.846;4.442;2022-12-07T08:11:24;7.10;89.40
43894;DHT22;29556;50.846;4.442;2022-12-07T08:13:50;7.20;89.40
43894;DHT22;29556;50.846;4.442;2022-12-07T08:16:17;7.20;89.30
43894;DHT22;29556;50.846;4.442;2022-12-07T08:18:43;7.10;89.50
43894;DHT22;29556;50.846;4.442;2022-12-07T08:21:13;7.00;89.40
43894;DHT22;29556;50.846;4.442;2022-12-07T08:23:39;7.00;89.40
43894;DHT22;29556;50.846;4.442;2022-12-07T08:26:15;7.10;89.60
43894;DHT22;29556;50.846;4.442;2022-12-07T08:28:41;7.10;90.10
43894;DHT22;29556;50.846;4.442;2022-12-07T08:31:13;6.90;89.30
43894;DHT22;29556;50.846;4.442;2022-12-07T08:33:40;6.90;89.50
43894;DHT22;29556;50.846;4.442;2022-12-07T08:36:09;7.00;89.70
43894;DHT22;29556;50.846;4.442;2022-12-07T08:38:36;6.90;89.50
43894;DHT22;29556;50.846;4.442;2022-12-07T08:41:03;6.90;89.50
43894;DHT22;29556;50.846;4.442;2022-12-07T08:43:29;7.00;89.70
43894;DHT22;29556;50.846;4.442;2022-12-07T08:48:37;7.00;89.80
43894;DHT22;29556;50.846;4.442;2022-12-07T08:51:04;7.00;89.80
43894;DHT22;29556;50.846;4.442;2022-12-07T08:53:30;7.10;89.90
43894;DHT22;29556;50.846;4.442;2022-12-07T08:55:57;7.10;89.90
43894;DHT22;29556;50.846;4.442;2022-12-07T08:58:24;7.40;90.10
43894;DHT22;29556;50.846;4.442;2022-12-07T09:00:50;7.30;90.10
43894;DHT22;29556;50.846;4.442;2022-12-07T09:03:16;7.40;90.20
43894;DHT22;29556;50.846;4.442;2022-12-07T09:05:41;7.50;90.20
43894;DHT22;29556;50.846;4.442;2022-12-07T09:08:08;7.60;90.20
43894;DHT22;29556;50.846;4.442;2022-12-07T09:10:34;7.70;90.10
43894;DHT22;29556;50.846;4.442;2022-12-07T09:13:00;7.80;90.10
43894;DHT22;29556;50.846;4.442;2022-12-07T09:15:29;7.80;90.00
43894;DHT22;29556;50.846;4.442;2022-12-07T09:17:55;7.80;89.80
43894;DHT22;29556;50.846;4.442;2022-12-07T09:20:21;7.90;90.00
43894;DHT22;29556;50.846;4.442;2022-12-07T09:22:47;8.00;90.10
43894;DHT22;29556;50.846;4.442;2022-12-07T09:25:13;8.00;89.70
43894;DHT22;29556;50.846;4.442;2022-12-07T09:27:39;8.00;89.30
43894;DHT22;29556;50.846;4.442;2022-12-07T09:30:06;8.10;89.30
43894;DHT22;29556;50.846;4.442;2022-12-07T09:32:32;8.10;89.00
43894;DHT22;29556;50.846;4.442;2022-12-07T09:34:57;8.20;89.00
43894;DHT22;29556;50.846;4.442;2022-12-07T09:37:23;8.10;88.80
43894;DHT22;29556;50.846;4.442;2022-12-07T09:39:49;8.20;88.90
43894;DHT22;29556;50.846;4.442;2022-12-07T09:42:38;8.10;88.70
43894;DHT22;29556;50.846;4.442;2022-12-07T09:45:18;8.20;88.90
43894;DHT22;29556;50.846;4.442;2022-12-07T09:47:45;8.30;89.00
43894;DHT22;29556;50.846;4.442;2022-12-07T09:50:17;8.40;88.50
43894;DHT22;29556;50.846;4.442;2022-12-07T09:52:45;8.50;88.40
43894;DHT22;29556;50.846;4.442;2022-12-07T09:55:15;8.40;88.30
43894;DHT22;29556;50.846;4.442;2022-12-07T09:57:42;8.50;88.50
43894;DHT22;29556;50.846;4.442;2022-12-07T10:00:16;8.50;88.30
43894;DHT22;29556;50.846;4.442;2022-12-07T10:03:02;8.50;88.40
43894;DHT22;29556;50.846;4.442;2022-12-07T10:05:35;8.50;88.40
43894;DHT22;29556;50.846;4.442;2022-12-07T10:08:03;8.50;88.10
43894;DHT22;29556;50.846;4.442;2022-12-07T10:10:34;8.40;87.40
43894;DHT22;29556;50.846;4.442;2022-12-07T10:13:12;8.50;88.30
43894;DHT22;29556;50.846;4.442;2022-12-07T10:15:50;8.60;88.50
43894;DHT22;29556;50.846;4.442;2022-12-07T10:18:30;8.70;88.50
43894;DHT22;29556;50.846;4.442;2022-12-07T10:21:14;8.70;87.40
43894;DHT22;29556;50.846;4.442;2022-12-07T10:23:58;8.70;87.40
43894;DHT22;29556;50.846;4.442;2022-12-07T10:29:12;8.80;87.60
43894;DHT22;29556;50.846;4.442;2022-12-07T10:31:39;8.90;87.40
43894;DHT22;29556;50.846;4.442;2022-12-07T10:39:46;9.20;87.20
43894;DHT22;29556;50.846;4.442;2022-12-07T10:42:25;9.10;85.80
43894;DHT22;29556;50.846;4.442;2022-12-07T10:45:16;9.10;86.20
43894;DHT22;29556;50.846;4.442;2022-12-07T10:53:47;8.80;86.10
43894;DHT22;29556;50.846;4.442;2022-12-07T11:10:44;8.50;86.40
43894;DHT22;29556;50.846;4.442;2022-12-07T11:24:19;8.60;87.10
43894;DHT22;29556;50.846;4.442;2022-12-07T11:29:48;8.60;86.40
43894;DHT22;29556;50.846;4.442;2022-12-07T11:35:08;8.50;86.40
43894;DHT22;29556;50.846;4.442;2022-12-07T11:37:37;8.40;86.90
43894;DHT22;29556;50.846;4.442;2022-12-07T11:40:26;8.30;87.20
43894;DHT22;29556;50.846;4.442;2022-12-07T11:43:26;8.40;88.40
43894;DHT22;29556;50.846;4.442;2022-12-07T11:46:05;8.30;87.40
43894;DHT22;29556;50.846;4.442;2022-12-07T11:51:37;8.10;87.90
43894;DHT22;29556;50.846;4.442;2022-12-07T11:57:24;7.90;88.40
43894;DHT22;29556;50.846;4.442;2022-12-07T11:59:56;7.90;89.10
43894;DHT22;29556;50.846;4.442;2022-12-07T12:02:44;8.10;89.10
43894;DHT22;29556;50.846;4.442;2022-12-07T12:05:14;8.30;88.70
43894;DHT22;29556;50.846;4.442;2022-12-07T12:07:42;8.20;87.70
43894;DHT22;29556;50.846;4.442;2022-12-07T12:21:22;8.60;86.10
43894;DHT22;29556;50.846;4.442;2022-12-07T12:26:25;8.70;85.60
43894;DHT22;29556;50.846;4.442;2022-12-07T12:29:05;8.50;85.30
43894;DHT22;29556;50.846;4.442;2022-12-07T12:31:38;8.40;85.40
43894;DHT22;29556;50.846;4.442;2022-12-07T12:45:27;8.50;85.50
43894;DHT22;29556;50.846;4.442;2022-12-07T12:48:04;8.50;85.90
43894;DHT22;29556;50.846;4.442;2022-12-07T12:50:31;8.50;85.80
43894;DHT22;29556;50.846;4.442;2022-12-07T12:53:20;8.60;85.20
43894;DHT22;29556;50.846;4.442;2022-12-07T12:58:37;8.40;85.00
43894;DHT22;29556;50.846;4.442;2022-12-07T13:01:33;8.50;85.20
43894;DHT22;29556;50.846;4.442;2022-12-07T13:04:03;8.60;85.00
43894;DHT22;29556;50.846;4.442;2022-12-07T13:06:38;8.70;84.90
43894;DHT22;29556;50.846;4.442;2022-12-07T13:09:19;8.80;84.20
43894;DHT22;29556;50.846;4.442;2022-12-07T13:11:47;8.70;84.30
43894;DHT22;29556;50.846;4.442;2022-12-07T13:17:11;8.90;84.70
43894;DHT22;29556;50.846;4.442;2022-12-07T13:25:22;8.90;84.70
43894;DHT22;29556;50.846;4.442;2022-12-07T13:28:15;8.90;84.50
43894;DHT22;29556;50.846;4.442;2022-12-07T13:33:18;8.90;83.70
43894;DHT22;29556;50.846;4.442;2022-12-07T13:35:44;8.80;83.40
43894;DHT22;29556;50.846;4.442;2022-12-07T13:38:25;8.70;83.80
43894;DHT22;29556;50.846;4.442;2022-12-07T13:43:27;8.80;83.70
43894;DHT22;29556;50.846;4.442;2022-12-07T13:45:58;8.80;83.80
43894;DHT22;29556;50.846;4.442;2022-12-07T13:48:33;8.70;83.20
43894;DHT22;29556;50.846;4.442;2022-12-07T13:51:02;8.70;84.10
43894;DHT22;29556;50.846;4.442;2022-12-07T13:53:28;8.80;83.20
43894;DHT22;29556;50.846;4.442;2022-12-07T13:56:00;8.90;83.40
43894;DHT22;29556;50.846;4.442;2022-12-07T13:58:30;8.90;82.30
43894;DHT22;29556;50.846;4.442;2022-12-07T14:00:56;8.90;82.80
43894;DHT22;29556;50.846;4.442;2022-12-07T14:03:31;8.90;83.20
43894;DHT22;29556;50.846;4.442;2022-12-07T14:06:14;8.90;82.50
43894;DHT22;29556;50.846;4.442;2022-12-07T14:08:41;8.90;82.70
43894;DHT22;29556;50.846;4.442;2022-12-07T14:11:10;8.90;82.70
43894;DHT22;29556;50.846;4.442;2022-12-07T14:13:40;9.00;82.60
43894;DHT22;29556;50.846;4.442;2022-12-07T14:16:37;8.90;83.90
43894;DHT22;29556;50.846;4.442;2022-12-07T14:19:05;9.00;84.40
43894;DHT22;29556;50.846;4.442;2022-12-07T14:21:34;9.20;85.10
43894;DHT22;29556;50.846;4.442;2022-12-07T14:26:36;9.20;85.60
43894;DHT22;29556;50.846;4.442;2022-12-07T14:29:22;9.20;85.10
43894;DHT22;29556;50.846;4.442;2022-12-07T14:31:48;9.20;85.20
43894;DHT22;29556;50.846;4.442;2022-12-07T14:34:14;9.10;85.10
43894;DHT22;29556;50.846;4.442;2022-12-07T14:36:39;9.20;86.00
43894;DHT22;29556;50.846;4.442;2022-12-07T14:39:05;9.10;85.80
43894;DHT22;29556;50.846;4.442;2022-12-07T14:41:31;9.20;85.40
43894;DHT22;29556;50.846;4.442;2022-12-07T14:44:15;9.10;85.60
43894;DHT22;29556;50.846;4.442;2022-12-07T14:46:41;9.10;85.40
43894;DHT22;29556;50.846;4.442;2022-12-07T14:49:07;9.00;85.20
43894;DHT22;29556;50.846;4.442;2022-12-07T14:51:33;8.80;85.60
43894;DHT22;29556;50.846;4.442;2022-12-07T14:54:01;8.90;86.10
43894;DHT22;29556;50.846;4.442;2022-12-07T14:56:27;8.80;85.70
43894;DHT22;29556;50.846;4.442;2022-12-07T14:58:53;8.90;85.80
43894;DHT22;29556;50.846;4.442;2022-12-07T15:01:20;8.70;86.40
43894;DHT22;29556;50.846;4.442;2022-12-07T15:03:51;8.70;86.70
43894;DHT22;29556;50.846;4.442;2022-12-07T15:06:17;8.70;86.40
43894;DHT22;29556;50.846;4.442;2022-12-07T15:08:43;8.60;86.00
43894;DHT22;29556;50.846;4.442;2022-12-07T15:11:17;8.70;85.90
43894;DHT22;29556;50.846;4.442;2022-12-07T15:13:43;8.70;86.10
43894;DHT22;29556;50.846;4.442;2022-12-07T15:16:27;8.70;86.00
43894;DHT22;29556;50.846;4.442;2022-12-07T15:18:52;8.60;85.40
43894;DHT22;29556;50.846;4.442;2022-12-07T15:21:18;8.70;85.80
43894;DHT22;29556;50.846;4.442;2022-12-07T15:23:46;8.60;85.80
43894;DHT22;29556;50.846;4.442;2022-12-07T15:26:12;8.60;85.50
43894;DHT22;29556;50.846;4.442;2022-12-07T15:28:41;8.50;85.50
43894;DHT22;29556;50.846;4.442;2022-12-07T15:31:14;8.50;85.90
43894;DHT22;29556;50.846;4.442;2022-12-07T15:33:40;8.50;86.40
43894;DHT22;29556;50.846;4.442;2022-12-07T15:36:06;8.50;86.10
43894;DHT22;29556;50.846;4.442;2022-12-07T15:38:32;8.50;85.80
43894;DHT22;29556;50.846;4.442;2022-12-07T15:40:58;8.50;85.90
43894;DHT22;29556;50.846;4.442;2022-12-07T15:43:23;8.50;86.10
43894;DHT22;29556;50.846;4.442;2022-12-07T15:46:08;8.60;86.70
43894;DHT22;29556;50.846;4.442;2022-12-07T15:48:34;8.60;86.20
43894;DHT22;29556;50.846;4.442;2022-12-07T15:51:07;8.50;85.30
43894;DHT22;29556;50.846;4.442;2022-12-07T15:53:35;8.30;85.20
43894;DHT22;29556;50.846;4.442;2022-12-07T15:56:04;8.20;85.80
43894;DHT22;29556;50.846;4.442;2022-12-07T15:58:31;8.10;85.80
43894;DHT22;29556;50.846;4.442;2022-12-07T16:00:57;8.00;86.20
43894;DHT22;29556;50.846;4.442;2022-12-07T16:03:23;7.90;87.00
43894;DHT22;29556;50.846;4.442;2022-12-07T16:05:50;7.90;87.30
43894;DHT22;29556;50.846;4.442;2022-12-07T16:08:16;7.90;87.00
43894;DHT22;29556;50.846;4.442;2022-12-07T16:10:42;7.90;86.90
43894;DHT22;29556;50.846;4.442;2022-12-07T16:13:10;7.90;87.20
43894;DHT22;29556;50.846;4.442;2022-12-07T16:15:39;8.10;87.50
43894;DHT22;29556;50.846;4.442;2022-12-07T16:18:06;8.20;87.00
43894;DHT22;29556;50.846;4.442;2022-12-07T16:20:32;8.10;86.40
43894;DHT22;29556;50.846;4.442;2022-12-07T16:22:58;8.00;86.00
43894;DHT22;29556;50.846;4.442;2022-12-07T16:25:25;8.00;85.90
43894;DHT22;29556;50.846;4.442;2022-12-07T16:27:52;7.90;85.90
43894;DHT22;29556;50.846;4.442;2022-12-07T16:30:18;8.10;86.60
43894;DHT22;29556;50.846;4.442;2022-12-07T16:32:43;8.00;86.20
43894;DHT22;29556;50.846;4.442;2022-12-07T16:35:10;8.10;86.30
43894;DHT22;29556;50.846;4.442;2022-12-07T16:37:37;8.20;86.20
43894;DHT22;29556;50.846;4.442;2022-12-07T16:40:03;8.50;86.30
43894;DHT22;29556;50.846;4.442;2022-12-07T16:42:35;8.40;85.80
43894;DHT22;29556;50.846;4.442;2022-12-07T16:45:01;8.30;85.20
43894;DHT22;29556;50.846;4.442;2022-12-07T16:47:27;8.50;85.60
43894;DHT22;29556;50.846;4.442;2022-12-07T16:49:52;8.40;85.70
43894;DHT22;29556;50.846;4.442;2022-12-07T16:52:20;8.30;85.20
43894;DHT22;29556;50.846;4.442;2022-12-07T16:54:47;8.30;85.40
43894;DHT22;29556;50.846;4.442;2022-12-07T16:57:13;8.60;85.50
43894;DHT22;29556;50.846;4.442;2022-12-07T16:59:39;8.50;85.30
43894;DHT22;29556;50.846;4.442;2022-12-07T17:02:05;8.40;85.80
43894;DHT22;29556;50.846;4.442;2022-12-07T17:04:32;8.40;84.80
43894;DHT22;29556;50.846;4.442;2022-12-07T17:06:58;8.20;85.00
43894;DHT22;29556;50.846;4.442;2022-12-07T17:09:24;8.40;85.80
43894;DHT22;29556;50.846;4.442;2022-12-07T17:11:50;8.50;85.50
43894;DHT22;29556;50.846;4.442;2022-12-07T17:14:16;8.50;85.20
43894;DHT22;29556;50.846;4.442;2022-12-07T17:17:01;8.60;85.40
43894;DHT22;29556;50.846;4.442;2022-12-07T17:19:26;8.50;84.30
43894;DHT22;29556;50.846;4.442;2022-12-07T17:21:52;8.50;84.40
43894;DHT22;29556;50.846;4.442;2022-12-07T17:24:18;8.40;84.80
43894;DHT22;29556;50.846;4.442;2022-12-07T17:26:45;8.40;84.70
43894;DHT22;29556;50.846;4.442;2022-12-07T17:29:12;8.40;84.80
43894;DHT22;29556;50.846;4.442;2022-12-07T17:31:39;8.40;84.80
43894;DHT22;29556;50.846;4.442;2022-12-07T17:34:10;8.40;84.70
43894;DHT22;29556;50.846;4.442;2022-12-07T17:36:37;8.30;85.00
43894;DHT22;29556;50.846;4.442;2022-12-07T17:39:07;8.40;84.50
43894;DHT22;29556;50.846;4.442;2022-12-07T17:41:34;8.40;84.40
43894;DHT22;29556;50.846;4.442;2022-12-07T17:44:19;8.20;84.30
43894;DHT22;29556;50.846;4.442;2022-12-07T17:46:48;8.10;85.00
43894;DHT22;29556;50.846;4.442;2022-12-07T17:49:14;8.10;85.50
43894;DHT22;29556;50.846;4.442;2022-12-07T17:51:40;8.00;85.40
43894;DHT22;29556;50.846;4.442;2022-12-07T17:54:24;8.00;85.60
43894;DHT22;29556;50.846;4.442;2022-12-07T17:56:50;8.10;86.00
43894;DHT22;29556;50.846;4.442;2022-12-07T17:59:16;8.00;85.70
43894;DHT22;29556;50.846;4.442;2022-12-07T18:01:42;8.00;86.00
43894;DHT22;29556;50.846;4.442;2022-12-07T18:04:08;8.00;85.80
43894;DHT22;29556;50.846;4.442;2022-12-07T18:06:34;8.00;85.90
43894;DHT22;29556;50.846;4.442;2022-12-07T18:09:00;8.10;85.70
43894;DHT22;29556;50.846;4.442;2022-12-07T18:11:26;8.10;85.30
43894;DHT22;29556;50.846;4.442;2022-12-07T18:13:52;8.10;85.60
43894;DHT22;29556;50.846;4.442;2022-12-07T18:16:21;8.20;85.50